This is the latest recevied weather packets stored in our database for station/object N5LSN. If no packets are shown the sender has not sent any weather packets the latest 10 day(s).
| Time | Temp. | Humidity | Pressure | Rain* | Wind** | Luminosity | Snow |
|---|---|---|---|---|---|---|---|
| 1777759645 | 21.11° C | 41% | 1018 hPa | 0 mm | - | 82 W/m² | - |
| 1777759341 | 21.67° C | 40% | 1018.1 hPa | 0 mm | - | 105 W/m² | - |
| 1777759039 | 21.67° C | 40% | 1018.1 hPa | 0 mm | - | 153 W/m² | - |
| 1777758736 | 21.67° C | 41% | 1018 hPa | 0 mm | - | 154 W/m² | - |
| 1777758433 | 22.22° C | 41% | 1017.9 hPa | 0 mm | - | 150 W/m² | - |
| 1777758130 | 22.22° C | 40% | 1017.9 hPa | 0 mm | - | 111 W/m² | - |
| 1777757827 | 22.22° C | 39% | 1018 hPa | 0 mm | - | 223 W/m² | - |
| 1777757525 | 22.78° C | 38% | 1018.1 hPa | 0 mm | - | 359 W/m² | - |
| 1777757223 | 22.78° C | 40% | 1018.2 hPa | 0 mm | - | 575 W/m² | - |
| 1777756921 | 22.22° C | 40% | 1018 hPa | 0 mm | - | 587 W/m² | - |
| 1777756616 | 21.67° C | 40% | 1018.3 hPa | 0 mm | - | 600 W/m² | - |
| 1777756314 | 21.67° C | 45% | 1018.4 hPa | 0 mm | - | 648 W/m² | - |
| 1777756011 | 20.56° C | 43% | 1018.3 hPa | 0 mm | - | 112 W/m² | - |
| 1777755708 | 21.11° C | 43% | 1018.6 hPa | 0 mm | - | 119 W/m² | - |
| 1777755405 | 22.22° C | 41% | 1018.4 hPa | 0 mm | - | 685 W/m² | - |
| 1777755101 | 22.22° C | 39% | 1018.6 hPa | 0 mm | - | 739 W/m² | - |
| 1777754798 | 22.22° C | 41% | 1018.6 hPa | 0 mm | - | 728 W/m² | - |
| 1777754496 | 22.22° C | 43% | 1018.7 hPa | 0 mm | - | 743 W/m² | - |
| 1777754192 | 21.67° C | 42% | 1018.5 hPa | 0 mm | - | 749 W/m² | - |
| 1777753891 | 22.22° C | 40% | 1018.9 hPa | 0 mm | - | 758 W/m² | - |
| 1777753585 | 21.67° C | 41% | 1018.9 hPa | 0 mm | - | 801 W/m² | - |
| 1777753284 | 21.67° C | 41% | 1019 hPa | 0 mm | - | 916 W/m² | - |
| 1777752980 | 21.11° C | 40% | 1018.7 hPa | 0 mm | - | 259 W/m² | - |
| 1777752677 | 21.67° C | 39% | 1018.9 hPa | 0 mm | - | 528 W/m² | - |
| 1777752372 | 22.22° C | 39% | 1018.9 hPa | 0 mm | - | 873 W/m² | - |
* Rain latest hour (hover to see other rain measurements)
** Current wind speed in m/s (hover to see current wind gust speed)